createdAt,value
2018-08-16T00:02:20.069Z,54.30
2018-08-16T00:07:23.905Z,54.20
2018-08-16T00:12:27.923Z,54.30
2018-08-16T00:17:31.832Z,54.30
2018-08-16T00:22:35.777Z,54.40
2018-08-16T00:27:40.385Z,54.30
2018-08-16T00:32:44.727Z,54.40
2018-08-16T00:37:48.515Z,54.40
2018-08-16T00:42:52.332Z,54.50
2018-08-16T00:48:10.250Z,54.50
2018-08-16T00:53:14.168Z,54.60
2018-08-16T00:58:17.992Z,54.60
2018-08-16T01:03:21.820Z,54.50
2018-08-16T01:08:25.648Z,54.60
2018-08-16T01:13:29.657Z,54.50
2018-08-16T01:18:34.577Z,54.60
2018-08-16T01:23:38.480Z,54.70
2018-08-16T01:28:48.894Z,54.70
2018-08-16T01:33:53.089Z,54.80
2018-08-16T01:39:09.302Z,54.80
2018-08-16T01:44:13.059Z,54.80
2018-08-16T01:49:38.171Z,54.80
2018-08-16T01:54:42.069Z,54.80
2018-08-16T01:59:45.778Z,54.90
2018-08-16T02:04:49.526Z,54.90
2018-08-16T02:09:53.474Z,54.90
2018-08-16T02:14:57.394Z,54.90
2018-08-16T02:20:01.394Z,54.90
2018-08-16T02:25:05.204Z,55.00
2018-08-16T02:30:09.816Z,55.00
2018-08-16T02:35:13.751Z,55.10
2018-08-16T02:40:17.417Z,55.10
2018-08-16T02:45:21.149Z,55.20
2018-08-16T02:50:24.939Z,55.20
2018-08-16T02:55:29.027Z,55.20
2018-08-16T03:00:32.954Z,55.20
2018-08-16T03:05:36.756Z,55.20
2018-08-16T03:10:40.487Z,55.30
2018-08-16T03:15:44.381Z,55.40
2018-08-16T03:20:48.265Z,55.40
2018-08-16T03:25:52.149Z,55.40
2018-08-16T03:30:56.343Z,55.30
2018-08-16T03:36:00.497Z,55.30
2018-08-16T03:41:04.491Z,55.40
2018-08-16T03:46:08.414Z,55.50
2018-08-16T03:51:12.477Z,55.50
2018-08-16T03:56:16.428Z,55.50
2018-08-16T04:01:20.797Z,55.50
2018-08-16T04:06:24.713Z,55.50
2018-08-16T04:11:28.710Z,55.50
2018-08-16T04:16:32.749Z,55.50
2018-08-16T04:21:36.843Z,55.60
2018-08-16T04:26:40.607Z,55.60
2018-08-16T04:31:44.423Z,55.70
2018-08-16T04:36:48.337Z,55.70
2018-08-16T04:41:52.277Z,55.70
2018-08-16T04:46:56.092Z,55.70
2018-08-16T04:52:00.597Z,55.70
2018-08-16T04:57:04.924Z,55.90
2018-08-16T05:02:08.931Z,55.80
2018-08-16T05:07:13.044Z,55.90
2018-08-16T05:12:17.082Z,56.10
2018-08-16T05:17:21.086Z,56.10
2018-08-16T05:22:25.190Z,56.10
2018-08-16T05:27:29.181Z,56.20
2018-08-16T05:32:33.170Z,56.20
2018-08-16T05:37:38.080Z,56.20
2018-08-16T05:42:41.860Z,56.40
2018-08-16T05:47:45.705Z,56.40
2018-08-16T05:52:49.704Z,56.40
2018-08-16T05:58:13.622Z,56.30
2018-08-16T06:03:17.632Z,56.40
2018-08-16T06:08:21.663Z,56.30
2018-08-16T06:13:25.949Z,56.40
2018-08-16T06:18:29.632Z,56.40
2018-08-16T06:23:33.595Z,56.40
2018-08-16T06:28:37.334Z,56.50
2018-08-16T06:33:41.243Z,56.50
2018-08-16T06:38:56.649Z,56.40
2018-08-16T06:44:00.561Z,56.30
2018-08-16T06:49:17.339Z,56.30
2018-08-16T06:54:21.110Z,56.40
2018-08-16T07:10:30.252Z,56.30
2018-08-16T07:15:34.284Z,56.10
2018-08-16T07:20:38.237Z,56.00
2018-08-16T07:25:42.216Z,56.00
2018-08-16T07:30:45.859Z,55.80
2018-08-16T07:35:50.059Z,55.70
2018-08-16T07:40:54.377Z,55.70
2018-08-16T07:45:58.406Z,55.70
2018-08-16T07:51:02.775Z,55.60
2018-08-16T07:56:07.004Z,55.50
2018-08-16T08:01:11.117Z,55.60
2018-08-16T08:06:15.666Z,55.50
2018-08-16T08:11:19.567Z,55.40
2018-08-16T08:16:23.464Z,55.40
2018-08-16T08:21:27.252Z,55.30
2018-08-16T08:26:31.259Z,55.30
2018-08-16T08:31:35.163Z,55.30
2018-08-16T08:36:50.040Z,55.20
2018-08-16T08:41:54.537Z,55.10
2018-08-16T08:46:58.539Z,54.90
2018-08-16T08:52:10.616Z,54.90
2018-08-16T08:57:25.815Z,54.80
2018-08-16T09:02:30.199Z,54.80
2018-08-16T09:07:34.099Z,54.80
2018-08-16T09:13:49.156Z,54.70
2018-08-16T09:24:21.300Z,54.80
2018-08-16T09:30:39.297Z,54.60
2018-08-16T09:35:43.112Z,54.60
2018-08-16T09:40:47.564Z,54.50
2018-08-16T09:47:07.411Z,54.40
2018-08-16T09:52:11.856Z,54.40
2018-08-16T09:57:16.194Z,54.20
2018-08-16T10:02:20.338Z,54.20
2018-08-16T10:07:24.124Z,54.20
2018-08-16T10:12:27.808Z,54.10
2018-08-16T10:17:31.710Z,54.00
2018-08-16T10:22:35.519Z,53.90
2018-08-16T10:27:39.705Z,53.80
2018-08-16T10:32:43.653Z,53.70
2018-08-16T10:37:48.164Z,53.50
2018-08-16T10:42:51.966Z,53.60
2018-08-16T10:47:58.825Z,53.60
2018-08-16T10:53:02.510Z,53.40
2018-08-16T10:58:06.567Z,53.20
2018-08-16T11:03:10.460Z,53.00
2018-08-16T11:08:20.827Z,53.00
2018-08-16T11:13:24.655Z,52.90
2018-08-16T11:18:51.584Z,52.70
2018-08-16T11:23:55.459Z,52.60
2018-08-16T11:29:11.092Z,52.50
2018-08-16T11:34:14.709Z,52.30
2018-08-16T11:39:22.995Z,52.10
2018-08-16T11:44:27.178Z,52.00
2018-08-16T11:54:59.379Z,51.50
2018-08-16T12:00:03.258Z,51.50
2018-08-16T12:05:07.060Z,52.00
2018-08-16T12:10:10.820Z,51.30
2018-08-16T12:15:15.035Z,51.10
2018-08-16T12:20:19.814Z,51.00
2018-08-16T12:25:24.119Z,50.80
2018-08-16T12:30:28.135Z,50.80
2018-08-16T12:35:31.974Z,50.40
2018-08-16T12:40:36.112Z,50.70
2018-08-16T12:45:40.351Z,49.90
2018-08-16T12:50:44.444Z,49.80
2018-08-16T12:55:48.070Z,49.60
2018-08-16T13:00:51.694Z,49.60
2018-08-16T13:05:55.336Z,49.30
2018-08-16T13:10:59.048Z,49.10
2018-08-16T13:16:03.109Z,49.00
2018-08-16T13:21:07.092Z,49.30
2018-08-16T13:26:11.080Z,48.80
2018-08-16T13:31:15.049Z,48.70
2018-08-16T13:36:22.615Z,48.70
2018-08-16T13:41:26.585Z,48.30
2018-08-16T13:46:30.256Z,48.20
2018-08-16T13:51:33.893Z,48.00
2018-08-16T13:56:37.642Z,47.90
2018-08-16T14:01:41.305Z,47.80
2018-08-16T14:06:45.027Z,47.60
2018-08-16T14:12:03.341Z,47.50
2018-08-16T14:17:07.101Z,47.30
2018-08-16T14:22:10.983Z,47.20
2018-08-16T14:27:14.761Z,46.90
2018-08-16T14:32:18.607Z,46.70
2018-08-16T14:43:06.519Z,46.50
2018-08-16T14:48:11.360Z,46.50
2018-08-16T14:53:15.158Z,46.50
2018-08-16T14:58:19.244Z,46.20
2018-08-16T15:03:23.097Z,46.10
2018-08-16T15:08:26.964Z,46.30
2018-08-16T15:13:31.804Z,46.30
2018-08-16T15:18:35.744Z,46.30
2018-08-16T15:23:40.741Z,46.40
2018-08-16T15:28:44.739Z,45.90
2018-08-16T15:33:48.733Z,45.90
2018-08-16T15:38:52.959Z,46.00
2018-08-16T15:43:57.010Z,46.10
2018-08-16T15:54:35.204Z,45.90
2018-08-16T15:59:39.167Z,45.60
2018-08-16T16:04:43.143Z,45.60
2018-08-16T16:09:47.059Z,45.50
2018-08-16T16:14:50.836Z,45.50
2018-08-16T16:19:54.801Z,45.30
2018-08-16T16:24:58.665Z,45.20
2018-08-16T16:30:02.899Z,45.00
2018-08-16T16:35:07.059Z,45.00
2018-08-16T16:40:11.580Z,45.00
2018-08-16T16:45:15.468Z,44.90
2018-08-16T16:50:19.366Z,45.10
2018-08-16T16:55:23.246Z,45.10
2018-08-16T17:00:28.049Z,45.10
2018-08-16T17:05:32.198Z,45.00
2018-08-16T17:10:36.588Z,45.00
2018-08-16T17:15:40.879Z,45.30
2018-08-16T17:20:44.698Z,45.40
2018-08-16T17:25:48.711Z,45.10
2018-08-16T17:30:52.807Z,45.30
2018-08-16T17:35:56.753Z,45.50
2018-08-16T17:41:00.728Z,46.50
2018-08-16T17:46:04.857Z,46.70
2018-08-16T17:51:09.211Z,47.40
2018-08-16T17:56:13.146Z,47.70
2018-08-16T18:01:17.273Z,48.50
2018-08-16T18:50:22.992Z,48.60
2018-08-16T18:55:26.824Z,48.80
2018-08-16T19:00:30.763Z,48.80
2018-08-16T19:05:35.654Z,49.10
2018-08-16T19:10:40.276Z,48.90
2018-08-16T19:15:44.520Z,49.00
2018-08-16T19:20:48.616Z,49.10
2018-08-16T19:25:52.362Z,49.20
2018-08-16T19:30:56.223Z,49.40
2018-08-16T19:36:00.154Z,49.40
2018-08-16T19:41:04.169Z,49.30
2018-08-16T19:46:08.479Z,49.50
2018-08-16T19:51:12.360Z,49.40
2018-08-16T19:56:16.998Z,49.50
2018-08-16T20:01:20.778Z,49.70
2018-08-16T20:06:24.672Z,49.50
2018-08-16T20:11:28.455Z,49.60
2018-08-16T20:16:32.283Z,49.80
2018-08-16T20:21:36.246Z,49.80
2018-08-16T20:26:39.835Z,49.80
2018-08-16T20:31:43.720Z,49.80
2018-08-16T20:36:47.739Z,49.80
2018-08-16T20:41:51.849Z,49.90
2018-08-16T20:46:55.553Z,49.90
2018-08-16T20:51:59.467Z,49.90
2018-08-16T21:13:31.520Z,50.20
2018-08-16T21:18:35.609Z,50.10
2018-08-16T21:23:39.288Z,50.10
2018-08-16T21:28:43.158Z,50.40
2018-08-16T21:33:47.037Z,51.20
2018-08-16T21:39:12.712Z,50.60
2018-08-16T21:44:16.915Z,50.50
2018-08-16T21:49:20.692Z,50.60
2018-08-16T21:54:24.629Z,50.70
